»·PEaware :: UAL1399 KPDX-KSEA

UAL1399 :: KPDX-KSEA

FLIGHT INFORMATION

Flight Status: Arrived
Operator:
United Airlines
More flights by this operator :: More flights under this callsign
Pilot: David C. (16084)
Aircraft: DEHAVILLAND DASH 8 400
(DH8D)
More flights by this aircraft type
Origin: KPDX Portland Intl
United States
Destination: KSEA Seattle-Tacoma Intl
United States
More flights between these airports :: More routes between these airports
Route: PTLD2 COUGA KRIEG HAWKZ7
File this flight plan on PilotEdge
Remarks:
Altitude:
(Current/Filed)
16,000ft
Speed:
(Current/Filed)
319kts
Departed: 26-Sep-22 11:03 AM
Arrived: 26-Sep-22 11:36 AM
Distance/Time
Traveled:
112nm/0:32
Distance/Time
To Go:
Arrived

Flight Plot

Page will automatically refresh every two minutes.

Flight plan parsing failed; only flown route is shown


Map Options




Map Legend


Flown Route
Filed Route
Departure Airport
Arrival Airport
Navaid (VOR, NDB)
Fix

Horizontal Profiles

Position Reports

Time Latitude Longitude Heading Altitude Ground
Speed
26-Sep-22 10:28 45.588891 -122.588194 222 32ft 0kts
26-Sep-22 10:29 45.588891 -122.588194 222 32ft 0kts
26-Sep-22 10:30 45.588891 -122.588194 222 32ft 0kts
26-Sep-22 10:31 45.588891 -122.588194 222 32ft 0kts
26-Sep-22 10:32 45.588891 -122.588194 222 32ft 0kts
26-Sep-22 10:33 45.588891 -122.588194 222 32ft 0kts
26-Sep-22 10:34 45.588891 -122.588194 222 32ft 0kts
26-Sep-22 10:35 45.588891 -122.588194 222 32ft 0kts
26-Sep-22 10:36 45.588891 -122.588194 222 32ft 0kts
26-Sep-22 10:37 45.588891 -122.588194 222 32ft 0kts
26-Sep-22 10:38 45.588891 -122.588194 222 32ft 0kts
26-Sep-22 10:39 45.588891 -122.588194 222 32ft 0kts
26-Sep-22 10:40 45.588891 -122.588194 222 32ft 0kts
26-Sep-22 10:41 45.588891 -122.588194 222 32ft 0kts
26-Sep-22 10:42 45.588891 -122.588194 222 32ft 0kts
26-Sep-22 10:43 45.588891 -122.588194 222 32ft 0kts
26-Sep-22 10:44 45.588891 -122.588194 222 32ft 0kts
26-Sep-22 10:45 45.588891 -122.588194 222 32ft 0kts
26-Sep-22 10:46 45.588891 -122.588194 222 32ft 0kts
26-Sep-22 10:47 45.588891 -122.588194 222 32ft 0kts
26-Sep-22 10:48 45.588891 -122.588194 222 32ft 0kts
26-Sep-22 10:49 45.588891 -122.588194 222 32ft 0kts
26-Sep-22 10:50 45.588891 -122.588194 222 32ft 0kts
26-Sep-22 10:51 45.588891 -122.588194 222 32ft 0kts
26-Sep-22 10:52 45.588891 -122.588194 222 32ft 0kts
26-Sep-22 10:53 45.588891 -122.588194 222 32ft 0kts
26-Sep-22 10:54 45.588891 -122.588194 222 32ft 0kts
26-Sep-22 10:55 45.588891 -122.588194 222 32ft 0kts
26-Sep-22 10:56 45.588869 -122.588221 220 32ft 1kts
26-Sep-22 10:57 45.588848 -122.588005 15 32ft 0kts
26-Sep-22 10:58 45.590613 -122.590321 298 32ft 15kts
26-Sep-22 10:59 45.592944 -122.596259 297 32ft 16kts
26-Sep-22 11:00 45.594396 -122.597549 44 32ft 0kts
26-Sep-22 11:01 45.594772 -122.595692 110 32ft 18kts
26-Sep-22 11:02 45.579216 -122.551733 101 896ft 183kts
26-Sep-22 11:03 45.568369 -122.470923 100 3048ft 231kts
26-Sep-22 11:04 45.557670 -122.381034 100 5651ft 234kts
26-Sep-22 11:05 45.553789 -122.288187 63 7862ft 245kts
26-Sep-22 11:06 45.613411 -122.278981 326 9782ft 250kts
26-Sep-22 11:07 45.672934 -122.328492 328 11789ft 251kts
26-Sep-22 11:08 45.734295 -122.379168 327 13460ft 259kts
26-Sep-22 11:09 45.797193 -122.431296 327 14968ft 266kts
26-Sep-22 11:10 45.862807 -122.485848 327 15947ft 290kts
26-Sep-22 11:11 45.938411 -122.548801 327 15968ft 336kts
26-Sep-22 11:12 46.022154 -122.618772 327 15989ft 358kts
26-Sep-22 11:13 46.110611 -122.681249 348 16027ft 366kts
26-Sep-22 11:14 46.211559 -122.700927 350 16010ft 369kts
26-Sep-22 11:15 46.313808 -122.720896 350 16000ft 371kts
26-Sep-22 11:16 46.416788 -122.725898 357 15983ft 372kts
26-Sep-22 11:17 46.520340 -122.729411 357 15983ft 372kts
26-Sep-22 11:18 46.623369 -122.733158 357 15983ft 372kts
26-Sep-22 11:19 46.726856 -122.736917 357 15983ft 372kts
26-Sep-22 11:20 46.821467 -122.693690 37 15979ft 367kts
26-Sep-22 11:21 46.900800 -122.603908 38 15661ft 350kts
26-Sep-22 11:22 46.985497 -122.540794 16 14151ft 341kts
26-Sep-22 11:23 47.074785 -122.502440 15 12716ft 326kts
26-Sep-22 11:24 47.161266 -122.485228 6 11379ft 312kts
26-Sep-22 11:25 47.245786 -122.471532 3 10072ft 300kts
26-Sep-22 11:26 47.325747 -122.459479 3 8826ft 273kts
26-Sep-22 11:27 47.399707 -122.455122 356 7692ft 264kts
26-Sep-22 11:28 47.470134 -122.455376 356 6591ft 234kts
26-Sep-22 11:29 47.533924 -122.455989 353 5620ft 227kts
26-Sep-22 11:30 47.594078 -122.438550 39 4565ft 234kts
26-Sep-22 11:31 47.585311 -122.355865 133 2695ft 222kts
26-Sep-22 11:32 47.539237 -122.315667 168 2001ft 185kts
26-Sep-22 11:33 47.491568 -122.310569 184 1260ft 164kts
26-Sep-22 11:34 47.453391 -122.311076 181 480ft 76kts
26-Sep-22 11:35 47.445869 -122.306991 97 480ft 15kts
26-Sep-22 11:36 47.444183 -122.304757 135 480ft 0kts

Navigation Log

Ident Type
Flight plan parsing failed, navigation log unavailable